Time;durP1;ratioP1;P1;durP2;ratioP2;P2;SDS_P1;SDS_P2;PMS_P1;PMS_P2;Temp;Humidity;BMP_temperature;BMP_pressure;BME280_temperature;BME280_humidity;BME280_pressure;Samples;Min_cycle;Max_cycle;Signal;HPM_P1;HPM_P2
2021/06/12 00:00:20;;;;;;;;;;;;;;;27.31;44.39;100540.41;5007166;28;957;-28
2021/06/12 00:02:46;;;;;;;;;;;;;;;27.22;44.57;100540.50;4998626;28;851;-33
2021/06/12 00:05:11;;;;;;;;;;;;;;;27.25;44.61;100537.44;4998917;28;753;-33
2021/06/12 00:07:36;;;;;;;;;;;;;;;27.26;44.58;100536.38;4998837;28;1902;-35
2021/06/12 00:10:06;;;;;;;;;;;;;;;27.28;44.54;100533.50;4998574;28;795;-34
2021/06/12 00:12:31;;;;;;;;;;;;;;;27.29;44.53;100531.66;4998813;28;873;-45
2021/06/12 00:14:57;;;;;;;;;;;;;;;27.23;44.62;100534.06;4997932;28;1167;-33
2021/06/12 00:17:22;;;;;;;;;;;;;;;27.22;44.82;100532.41;4998481;28;752;-30
2021/06/12 00:19:47;;;;;;;;;;;;;;;27.30;44.42;100527.91;4998675;28;820;-46
2021/06/12 00:22:12;;;;;;;;;;;;;;;27.28;44.30;100529.97;4998291;28;769;-31
2021/06/12 00:24:38;;;;;;;;;;;;;;;27.23;44.64;100534.06;4998417;28;856;-34
2021/06/12 00:27:03;;;;;;;;;;;;;;;27.25;44.84;100526.63;4998539;28;1914;-41
2021/06/12 00:29:28;;;;;;;;;;;;;;;27.24;44.62;100534.91;4998078;28;968;-32
2021/06/12 00:31:54;;;;;;;;;;;;;;;27.22;45.24;100536.97;4980589;28;827;-34
2021/06/12 00:34:19;;;;;;;;;;;;;;;27.32;44.88;100531.25;4998383;28;829;-33
2021/06/12 00:36:44;;;;;;;;;;;;;;;27.29;45.04;100531.66;4998384;28;784;-34
2021/06/12 00:39:10;;;;;;;;;;;;;;;27.24;45.21;100533.03;5005043;28;1098;-32
2021/06/12 00:41:35;;;;;;;;;;;;;;;27.31;45.01;100533.13;5036981;28;828;-34
2021/06/12 00:44:00;;;;;;;;;;;;;;;27.35;44.96;100534.44;5018710;28;1003;-32
2021/06/12 00:46:25;;;;;;;;;;;;;;;27.29;45.11;100535.19;5017352;28;1894;-32
2021/06/12 00:48:52;;;;;;;;;;;;;;;27.35;45.03;100539.81;5017788;28;820;-35
2021/06/12 00:51:18;;;;;;;;;;;;;;;27.30;45.20;100534.16;5016912;28;890;-31
2021/06/12 00:53:44;;;;;;;;;;;;;;;27.32;45.36;100532.09;5016503;28;871;-38
2021/06/12 00:56:18;;;;;;;;;;;;;;;27.32;45.18;100532.09;5017597;28;803;-46
2021/06/12 00:58:44;;;;;;;;;;;;;;;27.33;45.36;100538.31;5017378;28;804;-41
2021/06/12 01:01:13;;;;;;;;;;;;;;;27.30;45.23;100536.84;4998942;28;957;-33
2021/06/12 01:03:40;;;;;;;;;;;;;;;27.35;44.99;100530.88;4997949;28;823;-35
2021/06/12 01:06:06;;;;;;;;;;;;;;;27.37;45.11;100537.78;4998134;28;1902;-34
2021/06/12 01:08:31;;;;;;;;;;;;;;;27.35;45.30;100536.28;4997746;28;820;-46
2021/06/12 01:10:57;;;;;;;;;;;;;;;27.45;45.07;100536.81;4997516;28;502;-32
2021/06/12 01:13:25;;;;;;;;;;;;;;;27.41;45.20;100538.22;4997267;28;1304;-32
2021/06/12 01:15:52;;;;;;;;;;;;;;;27.36;45.18;100541.50;4997277;28;969;-33
2021/06/12 01:18:17;;;;;;;;;;;;;;;27.34;45.31;100545.41;4997560;28;806;-31
2021/06/12 01:20:55;;;;;;;;;;;;;;;27.44;45.22;100539.72;4997276;28;817;-29
2021/06/12 01:23:39;;;;;;;;;;;;;;;27.33;45.28;100546.44;4997319;28;761;-34
2021/06/12 01:26:12;;;;;;;;;;;;;;;27.30;45.37;100544.09;4997207;28;1911;-32
2021/06/12 01:28:37;;;;;;;;;;;;;;;27.34;45.31;100540.84;4963551;28;809;-33
2021/06/12 01:31:02;;;;;;;;;;;;;;;27.33;45.31;100538.31;4996950;28;953;-47
2021/06/12 01:33:27;;;;;;;;;;;;;;;27.30;45.41;100538.72;4979636;28;792;-34
2021/06/12 01:35:55;;;;;;;;;;;;;;;27.32;45.55;100539.38;4997068;28;741;-32
2021/06/12 01:38:28;;;;;;;;;;;;;;;27.34;45.55;100538.13;4979648;28;1296;-32
2021/06/12 01:40:55;;;;;;;;;;;;;;;27.35;45.15;100542.53;5032415;28;1207;-45
2021/06/12 01:43:21;;;;;;;;;;;;;;;27.39;45.42;100538.41;5036358;28;826;-33
2021/06/12 01:45:46;;;;;;;;;;;;;;;27.37;45.44;100545.03;5020443;28;1964;-32
2021/06/12 01:48:12;;;;;;;;;;;;;;;27.32;45.44;100542.91;5016265;28;844;-33
2021/06/12 01:50:37;;;;;;;;;;;;;;;27.41;45.28;100550.91;5016311;28;883;-29
2021/06/12 01:53:02;;;;;;;;;;;;;;;27.39;45.25;100551.91;4999319;28;808;-32
2021/06/12 01:55:28;;;;;;;;;;;;;;;27.41;45.21;100554.41;5016561;28;756;-47
2021/06/12 01:57:53;;;;;;;;;;;;;;;27.36;45.64;100555.00;4999136;28;765;-41
2021/06/12 02:00:19;;;;;;;;;;;;;;;27.42;45.21;100542.59;5004834;28;1000;-36
2021/06/12 02:02:45;;;;;;;;;;;;;;;27.43;45.41;100544.28;4996818;28;717;-34
2021/06/12 02:05:14;;;;;;;;;;;;;;;27.37;45.43;100548.59;4983506;28;828;-34
2021/06/12 02:07:39;;;;;;;;;;;;;;;27.38;45.47;100547.53;4983047;28;1902;-33
2021/06/12 02:10:05;;;;;;;;;;;;;;;27.42;45.25;100549.88;5000818;28;796;-33
2021/06/12 02:12:30;;;;;;;;;;;;;;;27.34;45.55;100546.25;4983151;28;1127;-34
2021/06/12 02:14:56;;;;;;;;;;;;;;;27.41;45.50;100540.09;4982832;28;1063;-29
2021/06/12 02:17:21;;;;;;;;;;;;;;;27.35;45.45;100552.47;4983597;28;836;-32
2021/06/12 02:19:47;;;;;;;;;;;;;;;27.38;45.63;100552.09;4983751;28;753;-46
2021/06/12 02:22:12;;;;;;;;;;;;;;;27.42;45.21;100549.88;5000962;28;864;-31
2021/06/12 02:24:37;;;;;;;;;;;;;;;27.46;45.23;100556.56;4983184;28;824;-32
2021/06/12 02:27:03;;;;;;;;;;;;;;;27.50;45.35;100558.69;5000342;28;1907;-28
2021/06/12 02:29:28;;;;;;;;;;;;;;;27.41;45.22;100567.09;4982509;28;973;-32
2021/06/12 02:31:56;;;;;;;;;;;;;;;27.34;45.81;100554.34;4983341;28;809;-30
2021/06/12 02:34:21;;;;;;;;;;;;;;;27.38;45.33;100563.75;4983017;28;761;-32
2021/06/12 02:36:47;;;;;;;;;;;;;;;27.40;45.22;100568.97;5000558;28;832;-33
2021/06/12 02:39:12;;;;;;;;;;;;;;;27.40;45.70;100566.25;5008361;28;1106;-33
2021/06/12 02:41:37;;;;;;;;;;;;;;;27.41;45.46;100565.22;5040067;28;835;-32
2021/06/12 02:44:03;;;;;;;;;;;;;;;27.35;45.50;100572.25;5037759;28;1019;-34
2021/06/12 02:46:29;;;;;;;;;;;;;;;27.41;45.27;100564.41;5019783;28;1905;-34
2021/06/12 02:48:58;;;;;;;;;;;;;;;27.39;45.43;100572.69;5020195;28;807;-30
2021/06/12 02:51:23;;;;;;;;;;;;;;;27.41;45.36;100567.94;5002085;28;773;-37
2021/06/12 02:53:49;;;;;;;;;;;;;;;27.43;45.37;100571.28;5001884;28;840;-47
2021/06/12 02:56:15;;;;;;;;;;;;;;;27.35;45.57;100574.94;5002333;28;764;-34
2021/06/12 02:58:40;;;;;;;;;;;;;;;27.36;45.54;100582.00;5019574;28;808;-33
2021/06/12 03:01:05;;;;;;;;;;;;;;;27.39;45.73;100578.91;5001797;28;953;-32
2021/06/12 03:03:31;;;;;;;;;;;;;;;27.40;45.30;100587.88;4982690;28;760;-31
2021/06/12 03:05:56;;;;;;;;;;;;;;;27.38;45.43;100588.06;4982182;28;1906;-31
2021/06/12 03:08:22;;;;;;;;;;;;;;;27.35;45.87;100601.09;4982630;28;777;-34
2021/06/12 03:10:47;;;;;;;;;;;;;;;27.36;45.86;100600.91;4982547;28;867;-47
2021/06/12 03:13:13;;;;;;;;;;;;;;;27.22;43.84;100596.38;4999798;28;859;-39
2021/06/12 03:15:38;;;;;;;;;;;;;;;26.46;44.20;100596.28;4980503;28;1020;-41
2021/06/12 03:18:04;;;;;;;;;;;;;;;26.21;44.47;100599.16;4981910;28;844;-43
2021/06/12 03:20:29;;;;;;;;;;;;;;;25.98;44.65;100596.44;4982829;28;728;-38
2021/06/12 03:23:00;;;;;;;;;;;;;;;25.95;44.30;100603.03;4982260;28;749;-38
2021/06/12 03:25:26;;;;;;;;;;;;;;;25.85;44.34;100603.28;4982801;28;859;-39
2021/06/12 03:27:51;;;;;;;;;;;;;;;25.80;44.91;100608.34;4982058;28;1923;-37
2021/06/12 03:30:16;;;;;;;;;;;;;;;25.78;44.87;100605.00;4981561;28;1310;-39
2021/06/12 03:32:42;;;;;;;;;;;;;;;25.78;45.22;100608.53;4981551;28;860;-39
2021/06/12 03:35:08;;;;;;;;;;;;;;;25.74;44.92;100612.59;4981263;28;860;-38
2021/06/12 03:37:33;;;;;;;;;;;;;;;25.72;45.01;100608.41;4999694;28;749;-39
2021/06/12 03:39:59;;;;;;;;;;;;;;;25.48;45.63;100613.72;5001827;28;1110;-39
2021/06/12 03:42:25;;;;;;;;;;;;;;;25.56;45.72;100607.44;5019992;28;891;-39
2021/06/12 03:44:51;;;;;;;;;;;;;;;25.56;45.79;100610.97;5029971;28;920;-38
2021/06/12 03:47:17;;;;;;;;;;;;;;;25.53;45.84;100613.19;5001277;28;1957;-37
2021/06/12 03:49:42;;;;;;;;;;;;;;;25.66;45.41;100618.03;4981096;28;1994;-35
2021/06/12 03:52:07;;;;;;;;;;;;;;;25.56;45.95;100621.75;5005179;28;661;-35
2021/06/12 03:54:33;;;;;;;;;;;;;;;25.57;45.41;100617.22;5017597;28;733;-33
2021/06/12 03:56:59;;;;;;;;;;;;;;;25.50;45.36;100621.59;4997502;28;1054;-57
2021/06/12 03:59:24;;;;;;;;;;;;;;;25.40;45.79;100617.28;5001156;28;1083;-44
2021/06/12 04:01:49;;;;;;;;;;;;;;;25.71;45.45;100622.91;5018405;28;800;-36
2021/06/12 04:04:15;;;;;;;;;;;;;;;25.74;45.45;100620.66;5018281;28;832;-36
2021/06/12 04:06:40;;;;;;;;;;;;;;;25.83;45.28;100626.84;5018019;28;1903;-32
2021/06/12 04:09:05;;;;;;;;;;;;;;;25.95;44.70;100626.44;5018298;28;816;-37
2021/06/12 04:11:31;;;;;;;;;;;;;;;26.22;43.99;100626.94;5018415;28;749;-32
2021/06/12 04:13:56;;;;;;;;;;;;;;;26.25;43.87;100624.75;5017819;28;1286;-31
2021/06/12 04:16:21;;;;;;;;;;;;;;;26.41;43.50;100628.34;4997957;28;777;-35
2021/06/12 04:18:46;;;;;;;;;;;;;;;26.21;44.57;100633.38;4998815;28;768;-32
2021/06/12 04:21:12;;;;;;;;;;;;;;;26.13;44.37;100628.84;4998585;28;812;-36
2021/06/12 04:23:37;;;;;;;;;;;;;;;26.28;43.94;100626.22;4998471;28;748;-33
2021/06/12 04:26:02;;;;;;;;;;;;;;;26.24;43.84;100624.94;4997884;28;1887;-33
2021/06/12 04:28:28;;;;;;;;;;;;;;;26.36;43.56;100630.75;4981084;28;1225;-34
2021/06/12 04:30:53;;;;;;;;;;;;;;;26.25;43.51;100630.13;4998324;28;965;-31
2021/06/12 04:33:19;;;;;;;;;;;;;;;26.06;43.63;100619.81;4998217;28;820;-31
2021/06/12 04:35:44;;;;;;;;;;;;;;;26.16;43.63;100625.81;4998267;28;816;-34
2021/06/12 04:38:09;;;;;;;;;;;;;;;26.19;44.24;100628.16;4998239;28;757;-35
2021/06/12 04:40:35;;;;;;;;;;;;;;;26.20;44.15;100635.22;5028067;28;1097;-32
2021/06/12 04:43:00;;;;;;;;;;;;;;;26.55;43.06;100633.97;5037965;28;790;-32
2021/06/12 04:45:26;;;;;;;;;;;;;;;26.51;43.47;100638.88;5024665;28;959;-33
2021/06/12 04:47:51;;;;;;;;;;;;;;;26.39;43.57;100631.22;5017812;28;1948;-34
2021/06/12 04:50:16;;;;;;;;;;;;;;;26.47;43.38;100634.88;4999791;28;821;-32
2021/06/12 04:52:42;;;;;;;;;;;;;;;26.57;43.03;100640.88;5017500;28;799;-33
2021/06/12 04:55:07;;;;;;;;;;;;;;;26.33;43.32;100648.13;5017709;28;745;-34
2021/06/12 04:57:33;;;;;;;;;;;;;;;26.40;43.03;100648.25;5017473;28;824;-33
2021/06/12 04:59:58;;;;;;;;;;;;;;;26.24;43.58;100652.69;5008494;28;956;-35
2021/06/12 05:02:23;;;;;;;;;;;;;;;25.99;44.06;100649.34;4997887;28;848;-34
2021/06/12 05:04:49;;;;;;;;;;;;;;;25.50;45.13;100648.53;4997792;28;762;-36
2021/06/12 05:07:14;;;;;;;;;;;;;;;25.23;45.90;100658.72;4997465;28;1950;-36
2021/06/12 05:09:39;;;;;;;;;;;;;;;25.25;46.50;100652.16;4997790;28;815;-35
2021/06/12 05:12:05;;;;;;;;;;;;;;;25.33;47.10;100651.28;4997540;28;856;-37
2021/06/12 05:14:30;;;;;;;;;;;;;;;25.67;45.49;100655.56;4997067;28;1326;-42
2021/06/12 05:16:56;;;;;;;;;;;;;;;25.77;45.62;100659.91;4997524;28;819;-29
2021/06/12 05:19:21;;;;;;;;;;;;;;;25.83;44.88;100663.75;4997358;28;809;-31
2021/06/12 05:21:47;;;;;;;;;;;;;;;25.64;45.21;100666.69;4997533;28;804;-47
2021/06/12 05:24:12;;;;;;;;;;;;;;;25.61;45.08;100664.31;4997707;28;810;-34
2021/06/12 05:26:38;;;;;;;;;;;;;;;25.58;45.07;100675.44;4997090;28;1974;-35
2021/06/12 05:29:04;;;;;;;;;;;;;;;25.36;45.47;100679.75;4997278;28;1165;-34
2021/06/12 05:31:29;;;;;;;;;;;;;;;25.26;46.05;100683.44;4997342;28;741;-32
2021/06/12 05:33:54;;;;;;;;;;;;;;;25.27;46.29;100687.84;4997444;28;744;-41
2021/06/12 05:36:20;;;;;;;;;;;;;;;25.38;46.24;100693.84;4997235;28;844;-35
2021/06/12 05:38:45;;;;;;;;;;;;;;;25.59;45.72;100692.44;4997150;28;1168;-46
2021/06/12 05:41:11;;;;;;;;;;;;;;;25.48;45.43;100699.88;5036136;28;748;-37
2021/06/12 05:43:36;;;;;;;;;;;;;;;25.21;46.77;100701.16;5036660;28;819;-37
2021/06/12 05:46:02;;;;;;;;;;;;;;;25.04;47.43;100707.38;5018741;28;1902;-35
2021/06/12 05:48:27;;;;;;;;;;;;;;;24.90;48.08;100713.41;5016479;28;850;-46
2021/06/12 05:50:53;;;;;;;;;;;;;;;24.93;46.97;100721.19;5016715;28;737;-31
2021/06/12 05:53:18;;;;;;;;;;;;;;;24.98;46.41;100729.59;5016527;28;844;-47
2021/06/12 05:55:43;;;;;;;;;;;;;;;24.94;46.02;100734.47;5016521;28;815;-31
2021/06/12 05:58:08;;;;;;;;;;;;;;;24.92;44.59;100735.66;5016496;28;794;-30
2021/06/12 06:00:34;;;;;;;;;;;;;;;24.74;45.82;100735.78;5002614;28;957;-34
2021/06/12 06:02:59;;;;;;;;;;;;;;;24.68;46.27;100742.66;4996801;28;744;-33
2021/06/12 06:05:24;;;;;;;;;;;;;;;24.96;45.67;100742.38;4996779;28;808;-34
2021/06/12 06:07:50;;;;;;;;;;;;;;;25.19;44.75;100742.53;4996836;28;1906;-36
2021/06/12 06:10:15;;;;;;;;;;;;;;;25.18;44.87;100742.69;4996735;28;760;-44
2021/06/12 06:12:40;;;;;;;;;;;;;;;25.26;45.32;100742.69;4997076;28;1450;-37
2021/06/12 06:15:07;;;;;;;;;;;;;;;25.37;44.66;100746.03;4996376;28;1062;-35
2021/06/12 06:17:32;;;;;;;;;;;;;;;25.37;43.74;100751.41;4996332;28;792;-35
2021/06/12 06:19:57;;;;;;;;;;;;;;;25.40;43.91;100756.47;4997009;28;820;-45
2021/06/12 06:22:22;;;;;;;;;;;;;;;25.46;44.77;100768.41;4996488;28;835;-38
2021/06/12 06:24:48;;;;;;;;;;;;;;;25.55;44.54;100765.53;4996425;28;796;-45
2021/06/12 06:27:13;;;;;;;;;;;;;;;25.64;44.91;100769.06;4996378;28;1910;-46
2021/06/12 06:29:38;;;;;;;;;;;;;;;25.64;44.74;100769.06;4996518;28;988;-35
2021/06/12 06:32:04;;;;;;;;;;;;;;;25.71;44.77;100765.69;4996682;28;748;-33
2021/06/12 06:34:29;;;;;;;;;;;;;;;25.64;45.28;100777.13;4979057;28;1186;-32
2021/06/12 06:36:54;;;;;;;;;;;;;;;25.05;46.86;100789.81;4996672;28;826;-35
2021/06/12 06:39:20;;;;;;;;;;;;;;;25.58;44.95;100785.03;5006224;28;1102;-42
2021/06/12 06:41:45;;;;;;;;;;;;;;;25.59;45.04;100779.47;5035695;28;804;-35
2021/06/12 06:44:10;;;;;;;;;;;;;;;25.74;44.63;100782.31;5034024;28;956;-36
2021/06/12 06:46:35;;;;;;;;;;;;;;;25.82;44.56;100780.63;5016148;28;1965;-45
2021/06/12 06:49:01;;;;;;;;;;;;;;;25.51;45.26;100790.25;5016180;28;764;-45
2021/06/12 06:51:26;;;;;;;;;;;;;;;25.17;44.69;100793.00;5020096;28;999;-34
2021/06/12 06:53:51;;;;;;;;;;;;;;;25.10;44.83;100793.84;5019751;28;816;-45
2021/06/12 06:56:16;;;;;;;;;;;;;;;25.33;45.89;100806.59;5019768;28;784;-44
2021/06/12 06:58:42;;;;;;;;;;;;;;;25.11;47.95;100806.31;5013291;28;1411;-34
2021/06/12 07:01:07;;;;;;;;;;;;;;;24.67;45.05;100805.56;5001026;28;854;-36
2021/06/12 07:03:32;;;;;;;;;;;;;;;24.32;45.96;100801.06;4999909;28;837;-34
2021/06/12 07:05:58;;;;;;;;;;;;;;;24.04;46.81;100805.81;5000147;28;1906;-34
2021/06/12 07:08:23;;;;;;;;;;;;;;;23.89;47.29;100797.50;4999683;28;868;-34
2021/06/12 07:10:49;;;;;;;;;;;;;;;23.61;46.69;100795.81;4999916;28;931;-35
2021/06/12 07:13:18;;;;;;;;;;;;;;;23.38;46.87;100796.31;4999802;28;1082;-31
2021/06/12 07:15:43;;;;;;;;;;;;;;;23.60;46.00;100788.78;4999628;28;973;-49
2021/06/12 07:18:08;;;;;;;;;;;;;;;23.52;46.08;100797.63;4999499;28;863;-44
2021/06/12 07:20:34;;;;;;;;;;;;;;;23.30;46.44;100793.56;4999566;28;795;-37
2021/06/12 07:22:59;;;;;;;;;;;;;;;23.22;46.47;100791.69;4999752;28;831;-34
2021/06/12 07:25:24;;;;;;;;;;;;;;;23.21;46.78;100798.03;4999626;28;753;-40
2021/06/12 07:27:49;;;;;;;;;;;;;;;23.24;46.80;100795.88;4999383;28;1907;-35
2021/06/12 07:30:15;;;;;;;;;;;;;;;23.17;47.19;100796.66;4999051;28;973;-35
2021/06/12 07:32:40;;;;;;;;;;;;;;;23.36;51.67;100803.69;4999367;28;788;-34
2021/06/12 07:35:06;;;;;;;;;;;;;;;23.51;52.09;100797.78;4999552;28;745;-32
2021/06/12 07:37:31;;;;;;;;;;;;;;;23.11;48.66;100790.06;4999827;28;760;-33
2021/06/12 07:39:56;;;;;;;;;;;;;;;22.95;47.42;100796.16;5018709;28;1125;-44
2021/06/12 07:42:21;;;;;;;;;;;;;;;22.96;47.59;100787.09;5038824;28;780;-44
2021/06/12 07:44:47;;;;;;;;;;;;;;;22.99;47.30;100787.63;5031018;28;960;-34
2021/06/12 07:47:12;;;;;;;;;;;;;;;22.75;47.36;100790.94;5018708;28;1898;-34
2021/06/12 07:49:37;;;;;;;;;;;;;;;23.46;48.07;100791.03;5018792;28;800;-33
2021/06/12 07:52:03;;;;;;;;;;;;;;;23.75;49.32;100783.69;5018635;28;760;-30
2021/06/12 07:54:28;;;;;;;;;;;;;;;23.54;45.94;100779.50;5000864;28;1154;-32
2021/06/12 07:56:53;;;;;;;;;;;;;;;23.32;45.15;100779.00;5018733;28;848;-29
2021/06/12 07:59:19;;;;;;;;;;;;;;;23.08;44.72;100769.78;5014927;28;940;-45
2021/06/12 08:01:44;;;;;;;;;;;;;;;22.85;44.88;100772.94;4998627;28;820;-32
2021/06/12 08:04:10;;;;;;;;;;;;;;;22.86;45.08;100769.25;4999049;28;788;-32
2021/06/12 08:06:35;;;;;;;;;;;;;;;23.24;46.92;100762.81;4998880;28;1955;-35
2021/06/12 08:09:00;;;;;;;;;;;;;;;23.53;47.81;100761.72;4998754;28;791;-34
2021/06/12 08:11:26;;;;;;;;;;;;;;;23.97;46.57;100759.94;4998876;28;840;-42
2021/06/12 08:13:51;;;;;;;;;;;;;;;23.81;44.26;100753.47;4998919;28;1237;-30
2021/06/12 08:16:16;;;;;;;;;;;;;;;23.40;44.49;100746.03;4998468;28;1020;-34
2021/06/12 08:18:41;;;;;;;;;;;;;;;23.11;44.17;100750.66;4998815;28;760;-32
2021/06/12 08:21:07;;;;;;;;;;;;;;;22.56;44.56;100747.13;4998318;28;927;-34
2021/06/12 08:23:32;;;;;;;;;;;;;;;22.79;46.72;100754.75;4998413;28;835;-33
2021/06/12 08:25:57;;;;;;;;;;;;;;;23.46;45.88;100742.72;4998596;28;2012;-33
2021/06/12 08:28:23;;;;;;;;;;;;;;;23.84;45.67;100747.78;4998412;28;815;-39
2021/06/12 08:30:48;;;;;;;;;;;;;;;23.10;44.35;100737.41;4998277;28;945;-30
2021/06/12 08:33:13;;;;;;;;;;;;;;;22.74;44.69;100740.97;4998190;28;760;-30
2021/06/12 08:35:39;;;;;;;;;;;;;;;22.58;44.65;100739.78;4998363;28;828;-47
2021/06/12 08:38:04;;;;;;;;;;;;;;;22.39;44.49;100741.59;4998778;28;822;-30
2021/06/12 08:40:29;;;;;;;;;;;;;;;23.02;46.38;100748.09;5026576;28;1129;-30
2021/06/12 08:42:55;;;;;;;;;;;;;;;23.47;46.65;100754.31;5037512;28;840;-33
2021/06/12 08:45:22;;;;;;;;;;;;;;;24.13;44.54;100748.41;5025585;28;992;-30
2021/06/12 08:47:47;;;;;;;;;;;;;;;24.00;42.74;100746.19;5017573;28;1968;-33
2021/06/12 08:50:13;;;;;;;;;;;;;;;23.18;44.72;100742.00;5017693;28;772;-29
2021/06/12 08:52:38;;;;;;;;;;;;;;;22.92;44.49;100740.13;5017829;28;808;-29
2021/06/12 08:55:07;;;;;;;;;;;;;;;22.74;44.83;100732.91;5017442;28;792;-33
2021/06/12 08:57:32;;;;;;;;;;;;;;;22.43;45.78;100725.22;5017724;28;756;-33
2021/06/12 08:59:57;;;;;;;;;;;;;;;22.39;46.20;100730.03;5008802;28;953;-32
2021/06/12 09:02:22;;;;;;;;;;;;;;;22.37;48.29;100734.72;4997693;28;773;-35
2021/06/12 09:04:52;;;;;;;;;;;;;;;22.86;49.57;100739.75;4997952;28;732;-47
2021/06/12 09:07:25;;;;;;;;;;;;;;;23.42;48.84;100740.50;4997537;28;1902;-31
2021/06/12 09:09:51;;;;;;;;;;;;;;;23.01;46.72;100741.88;4997653;28;761;-33
2021/06/12 09:12:17;;;;;;;;;;;;;;;22.61;46.82;100741.34;4997930;28;800;-35
2021/06/12 09:14:42;;;;;;;;;;;;;;;22.42;47.08;100745.81;4996396;28;1070;-33
2021/06/12 09:17:07;;;;;;;;;;;;;;;22.34;47.00;100743.91;4997320;28;891;-31
2021/06/12 09:19:39;;;;;;;;;;;;;;;22.11;47.20;100744.31;4997699;28;792;-34
2021/06/12 09:22:05;;;;;;;;;;;;;;;22.76;49.28;100755.06;4997309;28;789;-34
2021/06/12 09:24:45;;;;;;;;;;;;;;;23.32;49.90;100762.06;4997169;28;833;-33
2021/06/12 09:27:13;;;;;;;;;;;;;;;23.99;48.53;100765.16;4997470;28;1910;-34
2021/06/12 09:29:38;;;;;;;;;;;;;;;24.16;48.95;100774.97;4997412;28;973;-33
2021/06/12 09:32:29;;;;;;;;;;;;;;;24.32;49.56;100776.88;4997251;28;765;-30
2021/06/12 09:34:56;;;;;;;;;;;;;;;23.71;47.52;100766.19;4974189;28;1223;-34
2021/06/12 09:37:22;;;;;;;;;;;;;;;23.02;48.84;100766.88;4997478;28;792;-31
2021/06/12 09:40:05;;;;;;;;;;;;;;;22.74;50.35;100759.72;5014641;28;1102;-31
2021/06/12 09:42:45;;;;;;;;;;;;;;;22.58;51.63;100757.72;5036506;28;914;-30
2021/06/12 09:45:12;;;;;;;;;;;;;;;22.58;50.16;100757.72;5014375;28;899;-47
2021/06/12 09:47:37;;;;;;;;;;;;;;;22.47;49.89;100761.47;4997492;28;1902;-46
2021/06/12 09:50:03;;;;;;;;;;;;;;;22.90;51.78;100755.53;4997124;28;776;-30
2021/06/12 09:52:29;;;;;;;;;;;;;;;23.79;49.79;100744.72;4996739;28;705;-50
2021/06/12 09:54:55;;;;;;;;;;;;;;;24.12;49.69;100735.97;4979476;28;1356;-36
2021/06/12 09:57:22;;;;;;;;;;;;;;;24.43;49.69;100738.09;4997159;28;753;-34
2021/06/12 09:59:51;;;;;;;;;;;;;;;23.77;47.56;100729.78;4996899;28;973;-47
2021/06/12 10:02:34;;;;;;;;;;;;;;;23.07;47.87;100727.81;4996600;28;918;-32
2021/06/12 10:05:00;;;;;;;;;;;;;;;22.85;48.64;100721.13;4996974;28;817;-34
2021/06/12 10:07:25;;;;;;;;;;;;;;;22.67;48.66;100715.78;4996975;28;1903;-33
2021/06/12 10:09:51;;;;;;;;;;;;;;;22.68;48.36;100722.81;4997151;28;732;-34
2021/06/12 10:12:17;;;;;;;;;;;;;;;22.66;48.28;100709.56;4996747;28;542;-45
2021/06/12 10:14:42;;;;;;;;;;;;;;;22.68;50.76;100704.03;4996354;28;1110;-30
2021/06/12 10:17:08;;;;;;;;;;;;;;;23.80;48.28;100706.16;4996834;28;771;-45
2021/06/12 10:19:33;;;;;;;;;;;;;;;24.17;48.45;100701.41;4979177;28;898;-32
2021/06/12 10:21:58;;;;;;;;;;;;;;;23.38;46.41;100688.94;4979541;28;812;-30
2021/06/12 10:24:23;;;;;;;;;;;;;;;22.85;46.79;100691.63;4997362;28;868;-43
2021/06/12 10:26:49;;;;;;;;;;;;;;;22.57;47.52;100684.47;4982904;28;1904;-33
2021/06/12 10:29:16;;;;;;;;;;;;;;;22.39;48.00;100676.44;5000837;28;1001;-30
2021/06/12 10:31:41;;;;;;;;;;;;;;;22.27;48.50;100683.88;5000310;28;757;-31
2021/06/12 10:34:07;;;;;;;;;;;;;;;22.36;47.97;100671.38;4982614;28;831;-46
2021/06/12 10:36:32;;;;;;;;;;;;;;;22.81;50.24;100666.94;4982524;28;858;-30
2021/06/12 10:38:58;;;;;;;;;;;;;;;23.77;47.21;100668.88;5004128;28;1114;-45
2021/06/12 10:41:24;;;;;;;;;;;;;;;24.20;47.13;100665.31;5039737;28;737;-47
2021/06/12 10:43:50;;;;;;;;;;;;;;;24.37;48.85;100663.50;5039874;28;831;-28
2021/06/12 10:46:20;;;;;;;;;;;;;;;23.67;46.37;100660.09;5020062;28;1963;-30
2021/06/12 10:48:45;;;;;;;;;;;;;;;22.77;46.79;100649.50;5020028;28;1494;-36
2021/06/12 10:51:12;;;;;;;;;;;;;;;22.60;47.79;100653.84;5019530;28;844;-32
2021/06/12 10:53:38;;;;;;;;;;;;;;;22.47;47.09;100641.66;5019772;28;852;-47
2021/06/12 10:56:07;;;;;;;;;;;;;;;22.38;47.69;100643.44;5020146;28;769;-32
2021/06/12 10:58:35;;;;;;;;;;;;;;;22.35;48.29;100641.06;5019775;28;796;-31
2021/06/12 11:01:14;;;;;;;;;;;;;;;22.34;48.09;100630.47;5002006;28;1027;-30
2021/06/12 11:04:28;;;;;;;;;;;;;;;23.23;48.23;100630.50;4999651;28;808;-31
2021/06/12 11:06:36;;;;;;;;;;;;;;;24.04;50.08;100636.53;4989061;28;1899;-47
2021/06/12 11:09:14;;;;;;;;;;;;;;;23.52;46.45;100633.84;5000057;28;828;-43
2021/06/12 11:11:40;;;;;;;;;;;;;;;22.62;47.17;100633.94;4999601;28;828;-45
2021/06/12 11:14:34;;;;;;;;;;;;;;;22.51;47.38;100624.28;4999468;28;1387;-30
2021/06/12 11:17:12;;;;;;;;;;;;;;;22.70;47.13;100614.41;4986956;28;1525;-45
2021/06/12 11:19:51;;;;;;;;;;;;;;;22.72;46.77;100616.94;4999476;28;788;-43
2021/06/12 11:22:22;;;;;;;;;;;;;;;22.62;47.63;100615.19;5000001;28;768;-44
2021/06/12 11:24:47;;;;;;;;;;;;;;;22.96;47.05;100621.63;4999763;28;852;-31
2021/06/12 11:27:51;;;;;;;;;;;;;;;22.96;46.75;100623.44;4999205;28;1914;-32
2021/06/12 11:30:19;;;;;;;;;;;;;;;23.96;47.01;100627.44;4950281;29;1259;-49
2021/06/12 11:32:48;;;;;;;;;;;;;;;24.53;47.45;100627.69;4958758;29;801;-33
2021/06/12 11:35:33;;;;;;;;;;;;;;;23.23;46.49;100626.97;4989164;28;958;-32
2021/06/12 11:37:58;;;;;;;;;;;;;;;22.67;46.34;100624.59;5018069;28;1742;-39
2021/06/12 11:40:24;;;;;;;;;;;;;;;22.62;46.19;100628.59;5032331;28;1219;-41
2021/06/12 11:42:49;;;;;;;;;;;;;;;22.65;46.11;100634.63;5038611;28;848;-31
2021/06/12 11:45:15;;;;;;;;;;;;;;;22.65;46.28;100621.22;5027467;28;964;-32
2021/06/12 11:47:40;;;;;;;;;;;;;;;22.58;46.45;100620.97;5018894;28;1917;-46
2021/06/12 11:50:06;;;;;;;;;;;;;;;22.66;46.36;100620.22;5018759;28;761;-28
2021/06/12 11:52:54;;;;;;;;;;;;;;;22.55;46.67;100621.28;5018671;28;812;-32
2021/06/12 11:55:20;;;;;;;;;;;;;;;23.55;47.06;100630.84;5012912;28;1834;-28
2021/06/12 11:57:46;;;;;;;;;;;;;;;24.26;46.17;100627.00;5018738;28;1333;-31
2021/06/12 12:00:24;;;;;;;;;;;;;;;23.39;45.12;100623.50;5007877;28;1089;-31
2021/06/12 12:02:56;;;;;;;;;;;;;;;22.53;45.78;100625.97;4981602;28;772;-32
2021/06/12 12:05:22;;;;;;;;;;;;;;;22.22;45.56;100621.84;4999098;28;799;-32
2021/06/12 12:07:47;;;;;;;;;;;;;;;22.15;46.38;100621.63;4998850;28;1977;-29
2021/06/12 12:10:12;;;;;;;;;;;;;;;22.20;46.46;100613.13;4998887;28;835;-28
2021/06/12 12:12:38;;;;;;;;;;;;;;;22.30;46.41;100605.00;4998913;28;836;-39
2021/06/12 12:15:03;;;;;;;;;;;;;;;22.19;46.66;100606.09;4997841;28;1077;-45
2021/06/12 12:17:29;;;;;;;;;;;;;;;22.23;47.15;100599.41;4998479;28;883;-48
2021/06/12 12:19:54;;;;;;;;;;;;;;;23.04;48.43;100596.69;4998758;28;804;-38
2021/06/12 12:22:19;;;;;;;;;;;;;;;23.97;46.20;100604.94;4998506;28;827;-47
2021/06/12 12:24:46;;;;;;;;;;;;;;;23.48;45.85;100602.94;4998477;28;835;-30
2021/06/12 12:27:19;;;;;;;;;;;;;;;22.70;45.89;100601.00;4998482;28;1964;-31
2021/06/12 12:29:44;;;;;;;;;;;;;;;22.35;46.27;100592.84;4997657;28;969;-32
2021/06/12 12:32:09;;;;;;;;;;;;;;;22.22;46.27;100595.06;4980833;28;1353;-49
2021/06/12 12:34:39;;;;;;;;;;;;;;;22.06;46.74;100588.53;4998592;28;878;-36
2021/06/12 12:37:05;;;;;;;;;;;;;;;21.93;47.42;100588.09;4998417;28;795;-47
2021/06/12 12:39:43;;;;;;;;;;;;;;;21.82;47.47;100584.63;5010835;28;1169;-46
2021/06/12 12:42:09;;;;;;;;;;;;;;;21.96;48.05;100588.63;5019853;28;812;-32
2021/06/12 12:44:34;;;;;;;;;;;;;;;22.14;47.99;100591.31;5031138;28;1027;-41
2021/06/12 12:47:00;;;;;;;;;;;;;;;22.20;48.22;100584.50;4999641;28;1962;-30
2021/06/12 12:49:25;;;;;;;;;;;;;;;22.14;48.42;100587.78;5017577;28;741;-42